createdAt,value
2023-04-10T00:00:33.042Z,90.70
2023-04-10T00:03:04.130Z,90.70
2023-04-10T00:05:31.447Z,90.70
2023-04-10T00:07:58.222Z,90.70
2023-04-10T00:10:26.432Z,90.80
2023-04-10T00:12:54.299Z,90.70
2023-04-10T00:15:21.059Z,90.80
2023-04-10T00:17:47.778Z,90.80
2023-04-10T00:20:14.687Z,90.80
2023-04-10T00:22:42.836Z,90.90
2023-04-10T00:25:09.614Z,90.90
2023-04-10T00:27:36.286Z,91.00
2023-04-10T00:30:02.969Z,91.10
2023-04-10T00:32:29.694Z,91.10
2023-04-10T00:34:56.418Z,91.00
2023-04-10T00:37:24.466Z,91.00
2023-04-10T00:39:51.383Z,91.10
2023-04-10T00:42:18.060Z,91.30
2023-04-10T00:44:44.920Z,91.20
2023-04-10T00:47:13.947Z,91.30
2023-04-10T00:49:41.642Z,91.70
2023-04-10T00:52:09.085Z,91.30
2023-04-10T00:54:36.673Z,91.30
2023-04-10T00:57:04.835Z,91.50
2023-04-10T00:59:31.821Z,91.60
2023-04-10T01:01:59.376Z,91.70
2023-04-10T01:04:28.869Z,91.80
2023-04-10T01:07:00.569Z,91.70
2023-04-10T01:09:53.104Z,91.80
2023-04-10T01:12:39.251Z,91.60
2023-04-10T01:15:16.275Z,91.50
2023-04-10T01:18:09.864Z,91.50
2023-04-10T01:20:42.276Z,91.60
2023-04-10T01:23:53.991Z,91.50
2023-04-10T01:26:32.835Z,91.50
2023-04-10T01:29:08.118Z,91.30
2023-04-10T01:31:42.647Z,91.20
2023-04-10T01:34:19.158Z,91.30
2023-04-10T01:37:01.031Z,91.40
2023-04-10T01:39:29.099Z,91.50
2023-04-10T01:41:57.877Z,91.50
2023-04-10T01:44:28.159Z,91.60
2023-04-10T01:46:56.738Z,91.60
2023-04-10T01:49:26.377Z,91.60
2023-04-10T01:51:58.177Z,91.70
2023-04-10T01:54:27.971Z,91.70
2023-04-10T01:56:56.160Z,91.70
2023-04-10T01:59:23.127Z,91.60
2023-04-10T02:01:55.506Z,91.60
2023-04-10T02:04:22.406Z,91.60
2023-04-10T02:07:01.049Z,91.70
2023-04-10T02:10:10.900Z,91.80
2023-04-10T02:12:56.674Z,91.90
2023-04-10T02:15:26.667Z,91.90
2023-04-10T02:17:56.196Z,91.90
2023-04-10T02:20:24.470Z,92.00
2023-04-10T02:22:53.243Z,92.10
2023-04-10T02:25:20.639Z,92.10
2023-04-10T02:27:47.289Z,92.10
2023-04-10T02:30:13.956Z,92.50
2023-04-10T02:32:40.722Z,92.20
2023-04-10T02:35:08.045Z,92.20
2023-04-10T02:37:35.963Z,92.20
2023-04-10T02:40:02.714Z,92.10
2023-04-10T02:42:29.358Z,92.00
2023-04-10T02:44:56.327Z,92.10
2023-04-10T02:47:23.931Z,92.10
2023-04-10T02:49:50.660Z,92.20
2023-04-10T02:52:17.896Z,92.30
2023-04-10T02:54:44.566Z,92.20
2023-04-10T02:57:11.264Z,92.30
2023-04-10T02:59:38.080Z,92.20
2023-04-10T03:02:04.887Z,92.30
2023-04-10T03:04:35.083Z,92.20
2023-04-10T03:07:01.817Z,92.10
2023-04-10T03:09:28.635Z,92.30
2023-04-10T03:11:55.383Z,92.30
2023-04-10T03:14:22.739Z,92.30
2023-04-10T03:16:50.448Z,92.40
2023-04-10T03:19:17.229Z,92.40
2023-04-10T03:21:43.936Z,92.40
2023-04-10T03:24:10.673Z,92.50
2023-04-10T03:26:37.418Z,92.40
2023-04-10T03:29:04.586Z,92.50
2023-04-10T03:31:31.611Z,92.50
2023-04-10T03:33:58.593Z,92.60
2023-04-10T03:36:25.442Z,92.60
2023-04-10T03:38:52.874Z,92.90
2023-04-10T03:41:19.832Z,92.70
2023-04-10T03:43:46.489Z,92.80
2023-04-10T03:46:13.152Z,92.80
2023-04-10T03:48:40.843Z,92.90
2023-04-10T03:51:08.015Z,92.80
2023-04-10T03:53:37.649Z,92.70
2023-04-10T03:56:04.576Z,92.80
2023-04-10T03:58:31.286Z,92.70
2023-04-10T04:00:58.016Z,92.70
2023-04-10T04:03:24.965Z,92.90
2023-04-10T04:05:52.385Z,92.70
2023-04-10T04:08:19.146Z,92.60
2023-04-10T04:10:45.859Z,92.60
2023-04-10T04:13:12.576Z,92.70
2023-04-10T04:15:39.261Z,92.70
2023-04-10T04:18:06.301Z,92.70
2023-04-10T04:20:33.087Z,92.70
2023-04-10T04:22:59.741Z,92.80
2023-04-10T04:25:27.127Z,92.80
2023-04-10T04:27:53.790Z,92.90
2023-04-10T04:30:20.432Z,92.90
2023-04-10T04:32:47.159Z,93.00
2023-04-10T04:35:13.826Z,93.10
2023-04-10T04:37:40.788Z,93.20
2023-04-10T04:40:07.908Z,93.30
2023-04-10T04:42:34.591Z,93.30
2023-04-10T04:45:01.288Z,93.30
2023-04-10T04:47:27.990Z,93.40
2023-04-10T04:49:54.688Z,93.30
2023-04-10T04:52:21.431Z,93.20
2023-04-10T04:54:48.202Z,93.20
2023-04-10T04:57:15.023Z,93.30
2023-04-10T04:59:41.725Z,93.50
2023-04-10T05:02:08.563Z,93.40
2023-04-10T05:04:35.315Z,93.50
2023-04-10T05:07:01.974Z,93.60
2023-04-10T05:09:28.790Z,93.70
2023-04-10T05:11:55.752Z,93.90
2023-04-10T05:14:22.463Z,94.00
2023-04-10T05:16:49.180Z,94.10
2023-04-10T05:19:16.287Z,93.90
2023-04-10T05:21:43.242Z,93.90
2023-04-10T05:24:10.002Z,93.80
2023-04-10T05:26:36.688Z,93.70
2023-04-10T05:29:04.089Z,93.70
2023-04-10T05:31:30.841Z,93.70
2023-04-10T05:33:57.584Z,93.70
2023-04-10T05:36:24.248Z,93.70
2023-04-10T05:38:51.098Z,93.70
2023-04-10T05:41:17.802Z,93.70
2023-04-10T05:43:44.572Z,93.70
2023-04-10T05:46:11.822Z,93.80
2023-04-10T05:48:39.378Z,93.80
2023-04-10T05:51:06.425Z,93.70
2023-04-10T05:53:33.174Z,93.70
2023-04-10T05:55:59.943Z,93.70
2023-04-10T05:58:27.655Z,93.70
2023-04-10T06:00:54.854Z,93.60
2023-04-10T06:03:21.835Z,93.50
2023-04-10T06:05:48.856Z,93.50
2023-04-10T06:08:15.604Z,93.40
2023-04-10T06:10:42.269Z,93.40
2023-04-10T06:13:10.992Z,93.40
2023-04-10T06:15:38.327Z,93.50
2023-04-10T06:18:05.358Z,93.40
2023-04-10T06:20:32.070Z,93.40
2023-04-10T06:22:59.339Z,93.40
2023-04-10T06:25:26.545Z,93.40
2023-04-10T06:27:53.360Z,93.50
2023-04-10T06:30:20.260Z,93.50
2023-04-10T06:32:47.244Z,93.50
2023-04-10T06:35:13.923Z,93.40
2023-04-10T06:37:40.740Z,93.30
2023-04-10T06:40:11.772Z,93.30
2023-04-10T06:42:38.610Z,93.20
2023-04-10T06:45:05.876Z,93.20
2023-04-10T06:47:32.708Z,93.00
2023-04-10T06:49:59.592Z,92.90
2023-04-10T06:52:26.505Z,92.70
2023-04-10T06:54:53.194Z,92.60
2023-04-10T06:57:19.964Z,92.60
2023-04-10T06:59:46.658Z,92.50
2023-04-10T07:02:13.387Z,92.80
2023-04-10T07:04:40.410Z,92.30
2023-04-10T07:07:09.944Z,92.20
2023-04-10T07:09:36.751Z,92.10
2023-04-10T07:12:03.613Z,92.00
2023-04-10T07:14:31.320Z,91.70
2023-04-10T07:16:58.183Z,91.70
2023-04-10T07:19:24.849Z,91.60
2023-04-10T07:21:51.661Z,91.40
2023-04-10T07:24:18.797Z,91.30
2023-04-10T07:26:45.901Z,91.00
2023-04-10T07:29:14.063Z,90.90
2023-04-10T07:31:40.830Z,90.80
2023-04-10T07:34:07.847Z,90.60
2023-04-10T07:36:34.527Z,90.50
2023-04-10T07:39:01.249Z,90.40
2023-04-10T07:41:28.100Z,90.30
2023-04-10T07:43:54.896Z,90.20
2023-04-10T07:46:21.796Z,89.80
2023-04-10T07:48:49.824Z,89.70
2023-04-10T07:51:16.717Z,89.00
2023-04-10T07:53:43.481Z,88.80
2023-04-10T07:56:16.445Z,88.70
2023-04-10T07:58:43.483Z,88.40
2023-04-10T08:01:10.613Z,88.70
2023-04-10T08:03:42.176Z,88.20
2023-04-10T08:06:10.252Z,87.70
2023-04-10T08:08:41.700Z,87.60
2023-04-10T08:11:23.353Z,87.40
2023-04-10T08:13:51.772Z,87.40
2023-04-10T08:16:26.005Z,86.50
2023-04-10T08:18:53.800Z,86.10
2023-04-10T08:21:28.123Z,86.00
2023-04-10T08:23:59.657Z,85.90
2023-04-10T08:26:27.089Z,85.70
2023-04-10T08:28:56.347Z,84.90
2023-04-10T08:31:24.934Z,84.50
2023-04-10T08:33:52.209Z,84.00
2023-04-10T08:36:20.396Z,82.60
2023-04-10T08:38:47.959Z,82.20
2023-04-10T08:41:16.732Z,81.70
2023-04-10T08:43:45.615Z,81.30
2023-04-10T08:46:14.408Z,80.70
2023-04-10T08:48:53.905Z,80.60
2023-04-10T08:51:26.214Z,80.00
2023-04-10T08:53:57.685Z,79.70
2023-04-10T08:56:25.242Z,80.00
2023-04-10T08:58:52.467Z,80.30
2023-04-10T09:01:21.245Z,78.90
2023-04-10T09:03:48.666Z,78.30
2023-04-10T09:06:15.616Z,78.80
2023-04-10T09:08:42.295Z,77.90
2023-04-10T09:11:09.032Z,78.10
2023-04-10T09:13:38.174Z,76.60
2023-04-10T09:16:05.486Z,76.10
2023-04-10T09:18:50.765Z,75.90
2023-04-10T09:21:19.563Z,74.90
2023-04-10T09:23:47.933Z,75.30
2023-04-10T09:26:31.712Z,76.10
2023-04-10T09:28:59.295Z,72.70
2023-04-10T09:31:34.228Z,72.80
2023-04-10T09:34:18.670Z,71.40
2023-04-10T09:36:53.316Z,70.60
2023-04-10T09:39:20.274Z,70.00
2023-04-10T09:41:51.607Z,70.00
2023-04-10T09:44:33.074Z,69.30
2023-04-10T09:47:14.327Z,68.60
2023-04-10T09:49:55.438Z,68.10
2023-04-10T09:52:33.382Z,68.80
2023-04-10T09:55:05.328Z,68.80
2023-04-10T09:57:34.383Z,68.30
2023-04-10T10:00:07.058Z,67.50
2023-04-10T10:02:38.940Z,66.50
2023-04-10T10:05:06.649Z,66.10
2023-04-10T10:07:33.889Z,66.00
2023-04-10T10:10:03.290Z,65.50
2023-04-10T10:12:46.054Z,65.60
2023-04-10T10:15:25.739Z,65.00
2023-04-10T10:18:13.368Z,63.50
2023-04-10T10:20:45.229Z,63.30
2023-04-10T10:23:13.075Z,63.90
2023-04-10T10:25:40.231Z,64.00
2023-04-10T10:28:07.284Z,62.60
2023-04-10T10:30:34.878Z,63.10
2023-04-10T10:33:04.229Z,62.90
2023-04-10T10:35:32.091Z,63.20
2023-04-10T10:38:00.464Z,62.60
2023-04-10T10:40:45.117Z,62.60
2023-04-10T10:43:25.329Z,62.00
2023-04-10T10:46:09.381Z,61.50
2023-04-10T10:48:36.082Z,59.90
2023-04-10T10:51:04.000Z,60.50
2023-04-10T10:53:39.667Z,60.10
2023-04-10T10:56:18.555Z,60.20
2023-04-10T10:58:49.919Z,59.30
2023-04-10T11:01:17.327Z,59.20
2023-04-10T11:03:47.115Z,59.30
2023-04-10T11:06:19.262Z,59.20
2023-04-10T11:08:52.952Z,59.50
2023-04-10T11:11:25.232Z,59.50
2023-04-10T11:14:00.751Z,59.40
2023-04-10T11:16:31.598Z,58.70
2023-04-10T11:19:13.099Z,58.70
2023-04-10T11:22:00.436Z,58.70
2023-04-10T11:24:27.313Z,57.90
2023-04-10T11:26:54.097Z,58.20
2023-04-10T11:29:26.889Z,58.00
2023-04-10T11:31:57.398Z,57.70
2023-04-10T11:34:24.339Z,58.20
2023-04-10T11:36:51.033Z,58.10
2023-04-10T11:39:19.131Z,58.20
2023-04-10T11:41:50.686Z,57.90
2023-04-10T11:44:31.600Z,57.40
2023-04-10T11:46:58.702Z,57.40
2023-04-10T11:49:28.125Z,57.70
2023-04-10T11:51:55.452Z,57.40
2023-04-10T11:54:26.937Z,57.40
2023-04-10T11:57:01.240Z,57.40
2023-04-10T11:59:29.143Z,57.90
2023-04-10T12:02:10.532Z,58.20
2023-04-10T12:04:38.055Z,57.80
2023-04-10T12:07:05.027Z,57.80
2023-04-10T12:09:31.849Z,58.40
2023-04-10T12:12:05.286Z,58.00
2023-04-10T12:14:33.080Z,56.90
2023-04-10T12:17:01.514Z,57.40
2023-04-10T12:19:28.828Z,57.90
2023-04-10T12:21:57.491Z,57.50
2023-04-10T12:24:49.907Z,57.60
2023-04-10T12:27:27.801Z,57.00
2023-04-10T12:29:56.237Z,57.00
2023-04-10T12:32:23.849Z,57.40
2023-04-10T12:34:57.307Z,56.70
2023-04-10T12:37:24.922Z,56.80
2023-04-10T12:39:52.025Z,56.60
2023-04-10T12:42:21.087Z,56.10
2023-04-10T12:44:52.016Z,56.20
2023-04-10T12:47:18.888Z,56.50
2023-04-10T12:50:11.783Z,56.80
2023-04-10T12:52:40.822Z,56.90
2023-04-10T12:55:18.269Z,57.00
2023-04-10T12:57:46.560Z,57.00
2023-04-10T13:00:16.430Z,58.10
2023-04-10T13:02:43.699Z,57.20
2023-04-10T13:05:11.135Z,56.80
2023-04-10T13:07:38.857Z,56.50
2023-04-10T13:10:07.413Z,56.20
2023-04-10T13:12:36.116Z,56.00
2023-04-10T13:15:02.998Z,56.50
2023-04-10T13:17:29.778Z,56.50
2023-04-10T13:19:56.512Z,56.50
2023-04-10T13:22:23.199Z,56.70
2023-04-10T13:24:49.844Z,56.80
2023-04-10T13:27:16.563Z,56.70
2023-04-10T13:29:43.600Z,57.00
2023-04-10T13:32:10.883Z,56.50
2023-04-10T13:34:37.724Z,56.50
2023-04-10T13:37:04.599Z,57.00
2023-04-10T13:39:32.008Z,56.50
2023-04-10T13:41:59.497Z,56.50
2023-04-10T13:44:26.570Z,56.10
2023-04-10T13:46:54.099Z,56.10
2023-04-10T13:49:22.153Z,56.30
2023-04-10T13:51:49.239Z,56.60
2023-04-10T13:54:18.809Z,56.40
2023-04-10T13:56:46.647Z,55.80
2023-04-10T13:59:13.396Z,56.30
2023-04-10T14:01:40.208Z,56.40
2023-04-10T14:04:07.049Z,56.30
2023-04-10T14:06:34.015Z,56.50
2023-04-10T14:09:00.914Z,56.80
2023-04-10T14:11:27.566Z,56.70
2023-04-10T14:13:54.205Z,56.80
2023-04-10T14:16:21.047Z,56.50
2023-04-10T14:18:47.968Z,56.40
2023-04-10T14:21:14.681Z,56.30
2023-04-10T14:23:42.331Z,56.60
2023-04-10T14:26:09.090Z,57.00
2023-04-10T14:28:35.897Z,56.80
2023-04-10T14:31:02.701Z,56.50
2023-04-10T14:33:29.554Z,56.30
2023-04-10T14:35:56.400Z,56.30
2023-04-10T14:38:23.104Z,56.30
2023-04-10T14:40:50.847Z,56.40
2023-04-10T14:43:19.633Z,56.30
2023-04-10T14:45:46.573Z,57.00
2023-04-10T14:48:13.527Z,56.90
2023-04-10T14:50:40.666Z,56.80
2023-04-10T14:53:09.674Z,57.00
2023-04-10T14:55:37.209Z,57.00
2023-04-10T14:58:04.838Z,57.20
2023-04-10T15:00:32.674Z,57.20
2023-04-10T15:02:59.599Z,57.30
2023-04-10T15:05:27.278Z,57.50
2023-04-10T15:07:54.587Z,57.60
2023-04-10T15:10:21.402Z,57.70
2023-04-10T15:12:48.139Z,57.40
2023-04-10T15:15:14.995Z,57.50
2023-04-10T15:17:41.714Z,57.30
2023-04-10T15:20:08.832Z,57.20
2023-04-10T15:22:35.895Z,57.30
2023-04-10T15:25:02.894Z,57.40
2023-04-10T15:27:29.667Z,57.30
2023-04-10T15:29:56.872Z,57.40
2023-04-10T15:32:23.590Z,57.20
2023-04-10T15:34:50.343Z,57.50
2023-04-10T15:37:17.132Z,57.30
2023-04-10T15:39:43.816Z,57.50
2023-04-10T15:42:10.548Z,57.50
2023-04-10T15:44:37.330Z,57.50
2023-04-10T15:47:04.041Z,57.70
2023-04-10T15:49:37.643Z,57.60
2023-04-10T15:52:06.482Z,57.40
2023-04-10T15:54:35.188Z,57.70
2023-04-10T15:57:02.426Z,57.80
2023-04-10T15:59:29.377Z,58.40
2023-04-10T16:01:56.305Z,58.20
2023-04-10T16:04:23.384Z,58.50
2023-04-10T16:06:50.616Z,58.80
2023-04-10T16:11:48.058Z,59.10
2023-04-10T16:14:14.726Z,59.20
2023-04-10T16:16:41.449Z,59.20
2023-04-10T16:19:08.101Z,59.50
2023-04-10T16:21:34.747Z,59.80
2023-04-10T16:24:01.477Z,60.00
2023-04-10T16:26:28.263Z,60.00
2023-04-10T16:28:55.096Z,60.70
2023-04-10T16:31:22.012Z,60.90
2023-04-10T16:33:48.669Z,61.10
2023-04-10T16:36:15.501Z,61.50
2023-04-10T16:38:42.222Z,61.60
2023-04-10T16:41:09.989Z,61.70
2023-04-10T16:43:36.674Z,61.70
2023-04-10T16:46:03.451Z,62.10
2023-04-10T16:48:30.249Z,62.30
2023-04-10T16:51:04.650Z,62.60
2023-04-10T16:53:32.333Z,62.70
2023-04-10T16:56:01.540Z,62.90
2023-04-10T16:58:30.398Z,63.00
2023-04-10T17:00:57.124Z,63.10
2023-04-10T17:03:23.946Z,63.20
2023-04-10T17:05:51.337Z,63.50
2023-04-10T17:08:18.025Z,63.80
2023-04-10T17:10:44.679Z,63.80
2023-04-10T17:13:11.539Z,64.80
2023-04-10T17:15:38.195Z,63.90
2023-04-10T17:18:04.864Z,63.90
2023-04-10T17:20:36.065Z,64.70
2023-04-10T17:23:02.979Z,64.00
2023-04-10T17:25:30.999Z,63.80
2023-04-10T17:27:58.248Z,64.10
2023-04-10T17:30:25.009Z,64.40
2023-04-10T17:32:51.887Z,64.30
2023-04-10T17:35:18.719Z,64.20
2023-04-10T17:37:45.448Z,64.30
2023-04-10T17:40:12.509Z,64.30
2023-04-10T17:42:39.170Z,64.50
2023-04-10T17:45:06.614Z,64.70
2023-04-10T17:47:33.325Z,64.80
2023-04-10T17:50:00.006Z,65.00
2023-04-10T17:52:36.279Z,65.20
2023-04-10T17:55:03.030Z,65.40
2023-04-10T17:57:29.817Z,65.60
2023-04-10T17:59:56.660Z,65.70
2023-04-10T18:02:23.428Z,66.60
2023-04-10T18:04:50.136Z,66.00
2023-04-10T18:07:16.791Z,66.00
2023-04-10T18:09:45.412Z,66.10
2023-04-10T18:12:12.424Z,66.10
2023-04-10T18:14:39.110Z,66.10
2023-04-10T18:17:05.896Z,66.10
2023-04-10T18:19:32.595Z,66.00
2023-04-10T18:21:59.245Z,66.00
2023-04-10T18:24:25.953Z,66.10
2023-04-10T18:26:52.598Z,66.20
2023-04-10T18:29:19.972Z,66.20
2023-04-10T18:31:46.646Z,66.30
2023-04-10T18:34:13.562Z,66.40
2023-04-10T18:36:40.604Z,66.50
2023-04-10T18:39:07.371Z,66.70
2023-04-10T18:41:34.169Z,66.80
2023-04-10T18:44:05.343Z,67.00
2023-04-10T18:46:33.223Z,67.00
2023-04-10T18:49:01.207Z,67.00
2023-04-10T18:51:28.415Z,67.10
2023-04-10T18:53:55.585Z,67.00
2023-04-10T18:56:22.772Z,67.20
2023-04-10T18:58:50.307Z,67.40
2023-04-10T19:01:19.916Z,67.30
2023-04-10T19:03:52.402Z,67.50
2023-04-10T19:06:24.140Z,67.70
2023-04-10T19:08:51.248Z,67.70
2023-04-10T19:11:18.687Z,67.90
2023-04-10T19:13:45.571Z,68.60
2023-04-10T19:16:19.230Z,68.10
2023-04-10T19:18:49.730Z,68.20
2023-04-10T19:21:16.442Z,68.30
2023-04-10T19:23:43.239Z,68.40
2023-04-10T19:26:10.116Z,68.60
2023-04-10T19:28:36.932Z,68.80
2023-04-10T19:31:03.724Z,69.00
2023-04-10T19:33:30.551Z,69.30
2023-04-10T19:35:58.256Z,69.50
2023-04-10T19:38:25.239Z,69.60
2023-04-10T19:40:51.882Z,70.40
2023-04-10T19:43:18.562Z,69.90
2023-04-10T19:45:45.750Z,70.30
2023-04-10T19:48:12.465Z,70.40
2023-04-10T19:50:39.203Z,70.60
2023-04-10T19:53:06.009Z,70.90
2023-04-10T19:55:32.906Z,71.00
2023-04-10T19:57:59.668Z,71.40
2023-04-10T20:00:26.392Z,71.70
2023-04-10T20:02:53.228Z,71.90
2023-04-10T20:05:20.314Z,72.00
2023-04-10T20:07:47.059Z,72.20
2023-04-10T20:10:13.864Z,72.40
2023-04-10T20:12:40.651Z,72.80
2023-04-10T20:15:08.820Z,73.00
2023-04-10T20:17:35.910Z,73.10
2023-04-10T20:20:02.860Z,73.40
2023-04-10T20:22:29.563Z,73.90
2023-04-10T20:24:56.252Z,73.60
2023-04-10T20:27:24.584Z,73.90
2023-04-10T20:29:51.298Z,74.00
2023-04-10T20:32:18.010Z,74.20
2023-04-10T20:34:44.776Z,74.30
2023-04-10T20:37:11.606Z,74.50
2023-04-10T20:39:38.297Z,74.60
2023-04-10T20:42:06.269Z,75.10
2023-04-10T20:44:37.565Z,75.10
2023-04-10T20:47:06.310Z,75.40
2023-04-10T20:49:33.044Z,75.50
2023-04-10T20:51:59.975Z,75.70
2023-04-10T20:54:27.256Z,75.80
2023-04-10T20:56:53.961Z,75.90
2023-04-10T20:59:20.717Z,76.20
2023-04-10T21:01:47.454Z,76.30
2023-04-10T21:04:14.851Z,76.60
2023-04-10T21:06:41.643Z,76.70
2023-04-10T21:09:08.437Z,77.10
2023-04-10T21:11:35.273Z,77.10
2023-04-10T21:14:02.029Z,77.60
2023-04-10T21:16:30.944Z,77.20
2023-04-10T21:18:57.691Z,77.20
2023-04-10T21:21:24.419Z,77.40
2023-04-10T21:23:51.264Z,77.80
2023-04-10T21:26:18.013Z,78.30
2023-04-10T21:28:44.679Z,77.70
2023-04-10T21:31:11.392Z,77.80
2023-04-10T21:33:38.207Z,78.10
2023-04-10T21:36:06.536Z,78.00
2023-04-10T21:38:34.048Z,78.10
2023-04-10T21:41:01.092Z,79.10
2023-04-10T21:43:27.813Z,78.40
2023-04-10T21:45:54.481Z,78.50
2023-04-10T21:48:21.307Z,79.40
2023-04-10T21:50:49.495Z,78.80
2023-04-10T21:53:16.199Z,78.90
2023-04-10T21:55:42.960Z,79.10
2023-04-10T21:58:09.653Z,79.20
2023-04-10T22:00:36.381Z,79.50
2023-04-10T22:03:03.256Z,79.30
2023-04-10T22:05:30.123Z,79.30
2023-04-10T22:07:56.817Z,79.50
2023-04-10T22:10:23.469Z,79.60
2023-04-10T22:12:50.166Z,79.60
2023-04-10T22:15:17.647Z,79.60
2023-04-10T22:17:45.568Z,79.80
2023-04-10T22:20:12.470Z,80.00
2023-04-10T22:22:39.136Z,80.00
2023-04-10T22:25:06.178Z,80.30
2023-04-10T22:27:33.235Z,80.60
2023-04-10T22:30:03.722Z,80.60
2023-04-10T22:32:31.752Z,80.80
2023-04-10T22:34:59.462Z,80.80
2023-04-10T22:37:26.884Z,81.10
2023-04-10T22:39:55.899Z,81.20
2023-04-10T22:42:22.957Z,81.40
2023-04-10T22:44:49.636Z,81.50
2023-04-10T22:47:16.317Z,81.90
2023-04-10T22:49:42.992Z,82.70
2023-04-10T22:52:09.686Z,82.30
2023-04-10T22:54:36.340Z,82.30
2023-04-10T22:57:03.327Z,82.50
2023-04-10T22:59:30.196Z,83.10
2023-04-10T23:01:56.955Z,83.10
2023-04-10T23:04:23.730Z,83.00
2023-04-10T23:06:50.641Z,83.30
2023-04-10T23:09:17.282Z,83.30
2023-04-10T23:11:45.063Z,83.60
2023-04-10T23:14:11.766Z,83.80
2023-04-10T23:16:38.448Z,83.90
2023-04-10T23:19:05.326Z,84.00
2023-04-10T23:21:32.549Z,84.50
2023-04-10T23:23:59.344Z,84.40
2023-04-10T23:26:25.971Z,84.40
2023-04-10T23:28:52.889Z,84.50
2023-04-10T23:31:19.856Z,84.80
2023-04-10T23:33:46.528Z,84.90
2023-04-10T23:36:13.193Z,85.00
2023-04-10T23:38:40.404Z,85.10
2023-04-10T23:41:07.411Z,85.40
2023-04-10T23:43:34.261Z,85.50
2023-04-10T23:46:00.903Z,85.60
2023-04-10T23:48:27.606Z,85.60
2023-04-10T23:51:03.359Z,85.70
2023-04-10T23:53:30.064Z,86.20
2023-04-10T23:55:56.740Z,86.20
2023-04-10T23:58:23.371Z,86.60
